createdAt,value
2022-08-27T00:00:23.383Z,100768.31
2022-08-27T00:03:10.895Z,100763.22
2022-08-27T00:05:55.824Z,100765.19
2022-08-27T00:08:43.095Z,100763.59
2022-08-27T00:11:28.313Z,100761.94
2022-08-27T00:14:14.756Z,100767.22
2022-08-27T00:16:59.926Z,100761.00
2022-08-27T00:19:45.182Z,100757.72
2022-08-27T00:22:30.665Z,100764.66
2022-08-27T00:25:15.735Z,100756.78
2022-08-27T00:28:01.037Z,100760.44
2022-08-27T00:30:45.915Z,100762.34
2022-08-27T00:33:31.123Z,100760.50
2022-08-27T00:36:16.569Z,100763.34
2022-08-27T00:39:01.996Z,100757.22
2022-08-27T00:41:47.138Z,100764.78
2022-08-27T00:44:32.726Z,100761.59
2022-08-27T00:47:26.444Z,100767.06
2022-08-27T00:50:16.458Z,100765.97
2022-08-27T00:53:10.322Z,100760.25
2022-08-27T00:56:03.144Z,100766.16
2022-08-27T00:58:51.147Z,100755.53
2022-08-27T01:01:36.547Z,100759.28
2022-08-27T01:04:21.931Z,100760.53
2022-08-27T01:07:07.287Z,100764.69
2022-08-27T01:09:53.707Z,100763.59
2022-08-27T01:12:39.574Z,100756.56
2022-08-27T01:15:27.805Z,100756.63
2022-08-27T01:18:14.244Z,100759.97
2022-08-27T01:21:26.685Z,100756.56
2022-08-27T01:24:39.493Z,100768.78
2022-08-27T01:27:29.476Z,100770.41
2022-08-27T01:30:17.948Z,100766.22
2022-08-27T01:33:29.253Z,100770.03
2022-08-27T01:36:14.681Z,100768.28
2022-08-27T01:39:00.033Z,100771.75
2022-08-27T01:41:45.419Z,100765.50
2022-08-27T01:44:42.007Z,100768.50
2022-08-27T01:47:31.185Z,100777.47
2022-08-27T01:50:24.316Z,100777.44
2022-08-27T01:53:21.865Z,100774.66
2022-08-27T01:56:06.957Z,100779.72
2022-08-27T01:58:52.140Z,100774.38
2022-08-27T02:01:37.091Z,100781.72
2022-08-27T02:04:23.784Z,100774.75
2022-08-27T02:07:08.873Z,100784.59
2022-08-27T02:09:53.692Z,100784.47
2022-08-27T02:12:39.262Z,100784.53
2022-08-27T02:15:24.678Z,100779.41
2022-08-27T02:18:11.250Z,100777.53
2022-08-27T02:20:56.450Z,100779.34
2022-08-27T02:23:41.687Z,100777.00
2022-08-27T02:26:26.608Z,100789.44
2022-08-27T02:29:11.723Z,100782.44
2022-08-27T02:31:56.839Z,100780.75
2022-08-27T02:34:42.251Z,100780.69
2022-08-27T02:37:28.172Z,100784.00
2022-08-27T02:40:15.819Z,100778.84
2022-08-27T02:43:01.347Z,100784.94
2022-08-27T02:45:46.457Z,100780.53
2022-08-27T02:48:31.759Z,100780.28
2022-08-27T02:51:16.694Z,100782.97
2022-08-27T02:54:03.339Z,100782.84
2022-08-27T02:56:48.652Z,100783.59
2022-08-27T02:59:34.087Z,100777.38
2022-08-27T03:02:20.344Z,100774.63
2022-08-27T03:05:07.814Z,100772.34
2022-08-27T03:07:53.059Z,100782.88
2022-08-27T03:10:37.829Z,100776.72
2022-08-27T03:13:23.745Z,100775.88
2022-08-27T03:16:08.687Z,100788.66
2022-08-27T03:18:53.984Z,100781.63
2022-08-27T03:21:39.190Z,100791.16
2022-08-27T03:24:24.557Z,100789.19
2022-08-27T03:27:09.921Z,100778.91
2022-08-27T03:29:55.193Z,100782.22
2022-08-27T03:32:40.159Z,100786.56
2022-08-27T03:35:25.684Z,100792.88
2022-08-27T03:38:11.202Z,100788.34
2022-08-27T03:40:56.408Z,100792.94
2022-08-27T03:43:42.021Z,100799.03
2022-08-27T03:46:27.244Z,100797.13
2022-08-27T03:49:13.361Z,100794.38
2022-08-27T03:51:58.449Z,100789.91
2022-08-27T03:54:43.803Z,100795.13
2022-08-27T03:57:29.024Z,100790.25
2022-08-27T04:00:15.680Z,100798.28
2022-08-27T04:03:00.860Z,100794.88
2022-08-27T04:05:51.437Z,100782.69
2022-08-27T04:08:37.107Z,100789.56
2022-08-27T04:11:22.556Z,100795.66
2022-08-27T04:14:18.206Z,100791.59
2022-08-27T04:17:12.297Z,100790.66
2022-08-27T04:19:57.562Z,100798.53
2022-08-27T04:22:42.996Z,100803.78
2022-08-27T04:25:27.990Z,100808.22
2022-08-27T04:28:15.693Z,100792.59
2022-08-27T04:31:02.259Z,100796.94
2022-08-27T04:33:51.236Z,100795.06
2022-08-27T04:36:36.877Z,100804.63
2022-08-27T04:39:21.641Z,100807.44
2022-08-27T04:42:06.622Z,100805.78
2022-08-27T04:44:52.004Z,100804.88
2022-08-27T04:47:37.064Z,100812.50
2022-08-27T04:50:22.114Z,100813.22
2022-08-27T04:53:11.697Z,100815.88
2022-08-27T04:55:57.334Z,100808.13
2022-08-27T04:58:44.509Z,100815.91
2022-08-27T05:01:30.645Z,100816.72
2022-08-27T05:04:16.972Z,100814.94
2022-08-27T05:07:02.072Z,100815.75
2022-08-27T05:09:46.930Z,100813.22
2022-08-27T05:12:31.788Z,100807.13
2022-08-27T05:15:17.202Z,100810.81
2022-08-27T05:18:02.904Z,100810.81
2022-08-27T05:20:49.191Z,100814.38
2022-08-27T05:23:36.713Z,100807.78
2022-08-27T05:26:24.031Z,100819.50
2022-08-27T05:29:09.573Z,100822.06
2022-08-27T05:31:55.020Z,100815.28
2022-08-27T05:34:40.012Z,100814.41
2022-08-27T05:37:25.368Z,100811.94
2022-08-27T05:40:10.725Z,100813.72
2022-08-27T05:42:55.777Z,100816.28
2022-08-27T05:45:48.645Z,100816.09
2022-08-27T05:48:35.453Z,100810.63
2022-08-27T05:51:25.712Z,100804.41
2022-08-27T05:54:12.192Z,100801.84
2022-08-27T05:56:57.016Z,100809.66
2022-08-27T05:59:42.044Z,100804.47
2022-08-27T06:02:27.312Z,100801.78
2022-08-27T06:05:12.753Z,100802.53
2022-08-27T06:07:58.040Z,100805.91
2022-08-27T06:10:43.490Z,100807.56
2022-08-27T06:13:30.068Z,100809.09
2022-08-27T06:16:17.910Z,100800.09
2022-08-27T06:19:04.095Z,100799.91
2022-08-27T06:22:00.163Z,100795.38
2022-08-27T06:24:54.394Z,100791.69
2022-08-27T06:27:39.290Z,100790.69
2022-08-27T06:30:25.522Z,100787.97
2022-08-27T06:33:13.443Z,100778.22
2022-08-27T06:36:03.190Z,100793.97
2022-08-27T06:38:48.982Z,100784.38
2022-08-27T06:41:35.065Z,100794.69
2022-08-27T06:44:20.544Z,100787.69
2022-08-27T06:47:05.742Z,100814.13
2022-08-27T06:49:50.889Z,100825.31
2022-08-27T06:52:36.496Z,100811.97
2022-08-27T06:55:21.646Z,100796.88
2022-08-27T06:58:06.549Z,100801.84
2022-08-27T07:00:52.105Z,100792.97
2022-08-27T07:03:37.065Z,100803.56
2022-08-27T07:06:22.609Z,100793.13
2022-08-27T07:09:08.709Z,100790.34
2022-08-27T07:11:53.820Z,100805.94
2022-08-27T07:14:38.648Z,100809.16
2022-08-27T07:17:24.089Z,100799.19
2022-08-27T07:20:09.570Z,100811.47
2022-08-27T07:22:54.422Z,100824.03
2022-08-27T07:25:41.783Z,100833.19
2022-08-27T07:28:28.048Z,100853.47
2022-08-27T07:31:15.951Z,100847.66
2022-08-27T07:34:02.255Z,100856.34
2022-08-27T07:36:47.426Z,100858.91
2022-08-27T07:39:32.810Z,100858.94
2022-08-27T07:42:17.925Z,100865.16
2022-08-27T07:45:02.840Z,100875.66
2022-08-27T07:47:48.331Z,100864.09
2022-08-27T07:50:33.616Z,100850.88
2022-08-27T07:53:19.601Z,100863.97
2022-08-27T07:56:07.233Z,100879.00
2022-08-27T07:58:52.155Z,100883.44
2022-08-27T08:01:37.465Z,100894.03
2022-08-27T08:04:23.408Z,100902.03
2022-08-27T08:07:08.791Z,100899.56
2022-08-27T08:09:53.849Z,100912.81
2022-08-27T08:12:40.420Z,100908.63
2022-08-27T08:15:25.566Z,100916.69
2022-08-27T08:18:11.423Z,100922.91
2022-08-27T08:21:01.773Z,100922.09
2022-08-27T08:23:47.124Z,100931.25
2022-08-27T08:26:32.308Z,100936.56
2022-08-27T08:29:18.471Z,100934.91
2022-08-27T08:32:06.108Z,100939.19
2022-08-27T08:34:51.896Z,100942.88
2022-08-27T08:37:37.420Z,100936.63
2022-08-27T08:40:47.514Z,100947.97
2022-08-27T08:43:40.360Z,100944.31
2022-08-27T08:46:45.913Z,100939.00
2022-08-27T08:50:09.372Z,100943.34
2022-08-27T08:53:19.454Z,100938.09
2022-08-27T08:56:10.440Z,100934.50
2022-08-27T08:59:13.812Z,100930.09
2022-08-27T09:01:59.505Z,100930.06
2022-08-27T09:04:44.931Z,100938.81
2022-08-27T09:07:38.814Z,100936.16
2022-08-27T09:10:49.677Z,100937.81
2022-08-27T09:13:42.348Z,100945.63
2022-08-27T09:16:27.914Z,100937.69
2022-08-27T09:19:13.467Z,100941.22
2022-08-27T09:22:10.698Z,100939.47
2022-08-27T09:25:07.020Z,100943.78
2022-08-27T09:27:56.679Z,100934.09
2022-08-27T09:30:43.051Z,100927.88
2022-08-27T09:33:28.497Z,100926.09
2022-08-27T09:36:34.207Z,100917.72
2022-08-27T09:39:25.524Z,100944.22
2022-08-27T09:42:24.299Z,100928.88
2022-08-27T09:45:12.099Z,100938.88
2022-08-27T09:48:31.046Z,100950.25
2022-08-27T09:51:23.195Z,100945.16
2022-08-27T09:54:08.448Z,100953.66
2022-08-27T09:56:53.616Z,100945.56
2022-08-27T09:59:51.248Z,100944.75
2022-08-27T10:02:36.159Z,100951.66
2022-08-27T10:05:29.786Z,100948.13
2022-08-27T10:08:24.122Z,100946.25
2022-08-27T10:11:20.567Z,100932.13
2022-08-27T10:14:20.875Z,100938.09
2022-08-27T10:17:05.770Z,100934.69
2022-08-27T10:20:30.138Z,100938.16
2022-08-27T10:23:15.666Z,100931.03
2022-08-27T10:26:15.685Z,100928.28
2022-08-27T10:29:20.804Z,100920.34
2022-08-27T10:32:24.433Z,100939.53
2022-08-27T10:35:21.716Z,100934.28
2022-08-27T10:38:10.863Z,100934.44
2022-08-27T10:41:07.261Z,100945.84
2022-08-27T10:44:11.510Z,100929.97
2022-08-27T10:47:21.041Z,100930.84
2022-08-27T10:50:26.055Z,100928.34
2022-08-27T10:53:25.555Z,100929.31
2022-08-27T10:56:18.906Z,100937.47
2022-08-27T10:59:18.416Z,100937.84
2022-08-27T11:02:19.927Z,100937.47
2022-08-27T11:05:32.583Z,100944.16
2022-08-27T11:08:44.320Z,100938.50
2022-08-27T11:15:03.158Z,100919.84
2022-08-27T11:18:24.833Z,100921.31
2022-08-27T11:21:21.071Z,100930.69
2022-08-27T11:24:40.298Z,100915.81
2022-08-27T11:27:29.097Z,100920.16
2022-08-27T11:30:35.651Z,100916.69
2022-08-27T11:33:56.505Z,100910.44
2022-08-27T11:37:05.874Z,100918.06
2022-08-27T11:40:16.017Z,100920.59
2022-08-27T11:43:23.474Z,100911.72
2022-08-27T11:46:09.553Z,100917.81
2022-08-27T11:49:03.116Z,100908.94
2022-08-27T11:51:58.271Z,100917.47
2022-08-27T11:55:10.873Z,100908.69
2022-08-27T11:58:22.342Z,100913.09
2022-08-27T12:01:28.977Z,100915.59
2022-08-27T12:04:36.950Z,100911.28
2022-08-27T12:07:32.971Z,100919.88
2022-08-27T12:10:29.668Z,100914.47
2022-08-27T12:13:23.536Z,100914.31
2022-08-27T12:16:14.937Z,100897.56
2022-08-27T12:19:09.215Z,100909.72
2022-08-27T12:22:39.633Z,100885.19
2022-08-27T12:25:24.956Z,100901.09
2022-08-27T12:28:10.262Z,100900.19
2022-08-27T12:30:55.914Z,100901.81
2022-08-27T12:33:46.583Z,100899.97
2022-08-27T12:36:32.540Z,100894.84
2022-08-27T12:39:26.461Z,100901.72
2022-08-27T12:42:17.013Z,100905.78
2022-08-27T12:45:02.007Z,100902.13
2022-08-27T12:47:50.616Z,100899.34
2022-08-27T12:50:36.377Z,100893.06
2022-08-27T12:53:28.466Z,100873.59
2022-08-27T12:56:24.156Z,100879.59
2022-08-27T12:59:24.579Z,100874.41
2022-08-27T13:02:12.989Z,100879.13
2022-08-27T13:05:03.843Z,100879.84
2022-08-27T13:07:55.338Z,100882.09
2022-08-27T13:10:40.393Z,100867.81
2022-08-27T13:13:25.676Z,100864.06
2022-08-27T13:16:11.547Z,100862.03
2022-08-27T13:18:56.644Z,100851.50
2022-08-27T13:21:48.571Z,100853.09
2022-08-27T13:24:44.355Z,100844.00
2022-08-27T13:27:32.368Z,100841.28
2022-08-27T13:30:35.131Z,100856.22
2022-08-27T13:33:25.213Z,100829.78
2022-08-27T13:36:13.041Z,100855.88
2022-08-27T13:38:58.709Z,100856.59
2022-08-27T13:41:47.503Z,100861.63
2022-08-27T13:44:40.680Z,100832.53
2022-08-27T13:47:29.338Z,100828.94
2022-08-27T13:50:24.542Z,100816.03
2022-08-27T13:53:12.092Z,100843.31
2022-08-27T13:55:58.621Z,100820.47
2022-08-27T13:58:43.943Z,100820.56
2022-08-27T14:01:30.933Z,100843.19
2022-08-27T14:04:24.914Z,100838.66
2022-08-27T14:07:12.739Z,100845.63
2022-08-27T14:10:08.580Z,100820.13
2022-08-27T14:13:05.467Z,100837.81
2022-08-27T14:15:54.321Z,100866.41
2022-08-27T14:18:58.755Z,100856.44
2022-08-27T14:21:44.235Z,100829.13
2022-08-27T14:24:29.515Z,100871.13
2022-08-27T14:27:15.524Z,100829.78
2022-08-27T14:30:00.899Z,100811.25
2022-08-27T14:32:46.357Z,100812.03
2022-08-27T14:35:36.351Z,100831.19
2022-08-27T14:38:23.588Z,100812.94
2022-08-27T14:41:09.299Z,100846.34
2022-08-27T14:43:54.298Z,100835.91
2022-08-27T14:46:41.525Z,100844.06
2022-08-27T14:49:33.274Z,100845.38
2022-08-27T14:52:18.637Z,100874.75
2022-08-27T14:55:06.827Z,100867.81
2022-08-27T14:57:55.295Z,100856.50
2022-08-27T15:00:41.589Z,100842.38
2022-08-27T15:03:26.583Z,100852.72
2022-08-27T15:06:11.961Z,100857.09
2022-08-27T15:08:57.383Z,100868.28
2022-08-27T15:11:43.386Z,100851.63
2022-08-27T15:14:32.465Z,100838.44
2022-08-27T15:17:33.461Z,100861.13
2022-08-27T15:20:20.760Z,100872.59
2022-08-27T15:23:06.193Z,100846.50
2022-08-27T15:25:51.438Z,100843.06
2022-08-27T15:28:36.805Z,100840.50
2022-08-27T15:31:22.978Z,100876.47
2022-08-27T15:34:09.129Z,100865.50
2022-08-27T15:36:54.410Z,100875.28
2022-08-27T15:39:39.416Z,100873.34
2022-08-27T15:42:24.504Z,100859.22
2022-08-27T15:45:12.105Z,100882.84
2022-08-27T15:47:58.487Z,100865.09
2022-08-27T15:50:43.485Z,100866.78
2022-08-27T15:53:28.992Z,100842.09
2022-08-27T15:56:14.026Z,100860.38
2022-08-27T15:58:59.453Z,100831.16
2022-08-27T16:01:45.179Z,100842.00
2022-08-27T16:04:30.477Z,100850.91
2022-08-27T16:07:16.636Z,100844.56
2022-08-27T16:10:07.074Z,100866.44
2022-08-27T16:12:52.388Z,100847.44
2022-08-27T16:15:38.865Z,100877.44
2022-08-27T16:18:28.251Z,100901.97
2022-08-27T16:21:13.371Z,100874.78
2022-08-27T16:23:58.501Z,100866.06
2022-08-27T16:26:43.925Z,100872.19
2022-08-27T16:29:28.700Z,100857.00
2022-08-27T16:32:16.813Z,100884.09
2022-08-27T16:35:04.386Z,100876.94
2022-08-27T16:37:49.884Z,100865.91
2022-08-27T16:40:40.273Z,100902.84
2022-08-27T16:43:28.197Z,100873.88
2022-08-27T16:46:13.347Z,100860.91
2022-08-27T16:49:01.115Z,100893.38
2022-08-27T16:51:47.187Z,100884.66
2022-08-27T16:54:32.347Z,100884.66
2022-08-27T16:57:17.939Z,100891.59
2022-08-27T17:00:04.928Z,100878.38
2022-08-27T17:02:50.288Z,100890.47
2022-08-27T17:05:35.498Z,100895.69
2022-08-27T17:08:26.244Z,100890.47
2022-08-27T17:11:25.317Z,100898.44
2022-08-27T17:14:11.029Z,100896.78
2022-08-27T17:16:56.296Z,100899.34
2022-08-27T17:19:41.713Z,100893.09
2022-08-27T17:22:26.832Z,100888.66
2022-08-27T17:25:11.851Z,100883.25
2022-08-27T17:28:00.181Z,100895.44
2022-08-27T17:30:45.680Z,100888.41
2022-08-27T17:33:38.932Z,100884.25
2022-08-27T17:36:24.795Z,100901.13
2022-08-27T17:39:13.769Z,100897.97
2022-08-27T17:41:59.181Z,100901.44
2022-08-27T17:44:44.432Z,100906.63
2022-08-27T17:47:29.530Z,100925.16
2022-08-27T17:50:14.951Z,100910.28
2022-08-27T17:53:00.361Z,100908.53
2022-08-27T17:55:45.226Z,100910.16
2022-08-27T17:58:30.823Z,100897.63
2022-08-27T18:01:28.455Z,100925.72
2022-08-27T18:04:13.758Z,100909.03
2022-08-27T18:06:58.792Z,100905.50
2022-08-27T18:09:44.305Z,100909.88
2022-08-27T18:12:29.671Z,100902.84
2022-08-27T18:15:19.734Z,100914.06
2022-08-27T18:18:06.038Z,100920.25
2022-08-27T18:20:51.561Z,100922.19
2022-08-27T18:23:38.032Z,100920.53
2022-08-27T18:26:27.562Z,100926.88
2022-08-27T18:29:14.632Z,100940.19
2022-08-27T18:32:00.059Z,100922.78
2022-08-27T18:34:46.060Z,100925.56
2022-08-27T18:37:30.987Z,100951.16
2022-08-27T18:40:18.606Z,100955.66
2022-08-27T18:43:05.234Z,100971.44
2022-08-27T18:45:50.642Z,100968.03
2022-08-27T18:48:36.175Z,100955.03
2022-08-27T18:51:21.218Z,100955.88
2022-08-27T18:54:06.607Z,100931.28
2022-08-27T18:56:51.877Z,100932.94
2022-08-27T18:59:36.781Z,100943.31
2022-08-27T19:02:22.017Z,100965.97
2022-08-27T19:05:08.497Z,100955.41
2022-08-27T19:07:55.118Z,100962.44
2022-08-27T19:10:40.053Z,100966.09
2022-08-27T19:13:25.290Z,100947.78
2022-08-27T19:16:20.811Z,100956.53
2022-08-27T19:19:05.995Z,100953.72
2022-08-27T19:21:51.895Z,100943.19
2022-08-27T19:24:39.982Z,100963.38
2022-08-27T19:27:27.558Z,100962.59
2022-08-27T19:30:14.411Z,100944.19
2022-08-27T19:32:59.865Z,100956.66
2022-08-27T19:35:44.907Z,100955.69
2022-08-27T19:38:31.438Z,100947.06
2022-08-27T19:41:16.781Z,100954.16
2022-08-27T19:44:02.290Z,100977.00
2022-08-27T19:46:51.088Z,100965.84
2022-08-27T19:49:37.034Z,100966.81
2022-08-27T19:52:23.041Z,100964.19
2022-08-27T19:55:14.003Z,100969.38
2022-08-27T19:58:00.058Z,100972.81
2022-08-27T20:00:45.882Z,100971.16
2022-08-27T20:03:31.156Z,100982.59
2022-08-27T20:06:16.861Z,100978.38
2022-08-27T20:09:02.123Z,100979.31
2022-08-27T20:11:48.088Z,100995.22
2022-08-27T20:14:33.224Z,100955.34
2022-08-27T20:17:23.140Z,100969.38
2022-08-27T20:20:11.522Z,100975.53
2022-08-27T20:22:57.520Z,100977.47
2022-08-27T20:25:42.744Z,100967.81
2022-08-27T20:28:44.911Z,100970.44
2022-08-27T20:31:30.714Z,100982.66
2022-08-27T20:34:16.035Z,100984.38
2022-08-27T20:37:02.942Z,100976.63
2022-08-27T20:39:47.992Z,100993.25
2022-08-27T20:42:32.957Z,100987.13
2022-08-27T20:45:19.203Z,100988.81
2022-08-27T20:48:05.225Z,100985.34
2022-08-27T20:50:50.310Z,100973.28
2022-08-27T20:53:35.486Z,100982.97
2022-08-27T20:56:21.086Z,100993.59
2022-08-27T20:59:06.076Z,100992.09
2022-08-27T21:01:51.362Z,100997.53
2022-08-27T21:04:42.906Z,100995.88
2022-08-27T21:07:27.830Z,101008.31
2022-08-27T21:10:13.121Z,101001.47
2022-08-27T21:12:59.269Z,100996.31
2022-08-27T21:15:46.486Z,101008.63
2022-08-27T21:18:31.600Z,101008.63
2022-08-27T21:21:16.629Z,101006.88
2022-08-27T21:24:02.189Z,101000.88
2022-08-27T21:26:48.189Z,101011.56
2022-08-27T21:29:33.466Z,101018.69
2022-08-27T21:32:18.753Z,101023.94
2022-08-27T21:35:03.936Z,101030.16
2022-08-27T21:37:49.229Z,101032.81
2022-08-27T21:40:34.685Z,101040.75
2022-08-27T21:43:19.949Z,101038.13
2022-08-27T21:46:05.679Z,101040.72
2022-08-27T21:48:58.710Z,101048.53
2022-08-27T21:51:44.363Z,101041.53
2022-08-27T21:54:31.834Z,101046.78
2022-08-27T21:57:16.892Z,101053.69
2022-08-27T22:00:10.535Z,101057.97
2022-08-27T22:02:56.666Z,101058.88
2022-08-27T22:05:43.750Z,101054.53
2022-08-27T22:08:29.036Z,101055.41
2022-08-27T22:11:14.619Z,101057.19
2022-08-27T22:13:59.778Z,101058.16
2022-08-27T22:16:44.720Z,101065.22
2022-08-27T22:19:30.730Z,101069.53
2022-08-27T22:22:15.864Z,101059.03
2022-08-27T22:25:01.196Z,101053.72
2022-08-27T22:27:46.217Z,101050.28
2022-08-27T22:30:31.816Z,101048.63
2022-08-27T22:33:17.044Z,101053.03
2022-08-27T22:36:02.354Z,101057.38
2022-08-27T22:38:47.731Z,101052.97
2022-08-27T22:41:33.384Z,101052.06
2022-08-27T22:44:20.111Z,101054.69
2022-08-27T22:47:05.445Z,101054.69
2022-08-27T22:49:52.863Z,101049.50
2022-08-27T22:52:39.018Z,101054.72
2022-08-27T22:55:24.257Z,101062.50
2022-08-27T22:58:09.395Z,101056.38
2022-08-27T23:00:54.716Z,101058.03
2022-08-27T23:03:40.372Z,101058.91
2022-08-27T23:06:25.342Z,101077.25
2022-08-27T23:09:10.645Z,101079.97
2022-08-27T23:11:56.225Z,101083.44
2022-08-27T23:14:41.338Z,101079.09
2022-08-27T23:17:26.868Z,101079.09
2022-08-27T23:20:14.919Z,101075.59
2022-08-27T23:22:59.845Z,101067.75
2022-08-27T23:25:45.313Z,101070.34
2022-08-27T23:28:30.227Z,101075.66
2022-08-27T23:31:16.054Z,101060.88
2022-08-27T23:34:01.018Z,101078.34
2022-08-27T23:36:47.574Z,101077.47
2022-08-27T23:39:32.829Z,101063.50
2022-08-27T23:42:18.164Z,101073.13
2022-08-27T23:45:07.899Z,101067.91
2022-08-27T23:47:53.802Z,101060.06
2022-08-27T23:50:39.868Z,101067.00
2022-08-27T23:53:25.364Z,101062.66
2022-08-27T23:56:10.799Z,101081.84
2022-08-27T23:58:55.578Z,101071.41
